sensor_id;sensor_type;location;lat;lon;timestamp;P1;durP1;ratioP1;P2;durP2;ratioP2
70420;SDS011;57848;51.938;15.520;2024-03-23T00:55:19;34.75;;;17.15;;
70420;SDS011;57848;51.938;15.520;2024-03-23T00:57:44;30.17;;;15.57;;
70420;SDS011;57848;51.938;15.520;2024-03-23T01:00:10;31.67;;;15.27;;
70420;SDS011;57848;51.938;15.520;2024-03-23T01:02:36;31.05;;;15.48;;
70420;SDS011;57848;51.938;15.520;2024-03-23T01:05:02;32.97;;;15.63;;
70420;SDS011;57848;51.938;15.520;2024-03-23T01:07:27;31.85;;;15.82;;
70420;SDS011;57848;51.938;15.520;2024-03-23T01:09:52;36.13;;;17.00;;
70420;SDS011;57848;51.938;15.520;2024-03-23T01:12:18;35.23;;;16.87;;
70420;SDS011;57848;51.938;15.520;2024-03-23T01:14:43;34.73;;;16.37;;
70420;SDS011;57848;51.938;15.520;2024-03-23T01:17:09;33.97;;;16.52;;
70420;SDS011;57848;51.938;15.520;2024-03-23T01:19:34;33.17;;;16.80;;
70420;SDS011;57848;51.938;15.520;2024-03-23T01:22:00;38.17;;;17.63;;
70420;SDS011;57848;51.938;15.520;2024-03-23T01:24:25;36.47;;;16.97;;
70420;SDS011;57848;51.938;15.520;2024-03-23T01:26:50;38.20;;;17.07;;
70420;SDS011;57848;51.938;15.520;2024-03-23T01:29:16;34.65;;;17.55;;
70420;SDS011;57848;51.938;15.520;2024-03-23T01:31:41;37.03;;;17.60;;
70420;SDS011;57848;51.938;15.520;2024-03-23T01:34:06;38.60;;;17.67;;
70420;SDS011;57848;51.938;15.520;2024-03-23T01:36:32;35.90;;;17.05;;
70420;SDS011;57848;51.938;15.520;2024-03-23T01:38:58;40.27;;;18.37;;
70420;SDS011;57848;51.938;15.520;2024-03-23T01:41:24;40.85;;;18.13;;
70420;SDS011;57848;51.938;15.520;2024-03-23T01:43:49;38.43;;;18.70;;
70420;SDS011;57848;51.938;15.520;2024-03-23T01:46:15;37.43;;;19.27;;
70420;SDS011;57848;51.938;15.520;2024-03-23T01:48:41;40.47;;;17.95;;
70420;SDS011;57848;51.938;15.520;2024-03-23T01:51:06;38.88;;;18.60;;
70420;SDS011;57848;51.938;15.520;2024-03-23T01:53:32;37.17;;;17.57;;
70420;SDS011;57848;51.938;15.520;2024-03-23T01:55:58;42.13;;;19.57;;
70420;SDS011;57848;51.938;15.520;2024-03-23T01:58:23;39.00;;;18.23;;
70420;SDS011;57848;51.938;15.520;2024-03-23T02:00:48;37.83;;;19.03;;
70420;SDS011;57848;51.938;15.520;2024-03-23T02:05:50;36.22;;;18.02;;
70420;SDS011;57848;51.938;15.520;2024-03-23T02:08:17;36.10;;;17.93;;
70420;SDS011;57848;51.938;15.520;2024-03-23T02:10:43;43.20;;;18.83;;
70420;SDS011;57848;51.938;15.520;2024-03-23T02:13:08;37.20;;;18.50;;
70420;SDS011;57848;51.938;15.520;2024-03-23T02:15:34;39.45;;;17.98;;
70420;SDS011;57848;51.938;15.520;2024-03-23T02:17:59;39.23;;;17.47;;
70420;SDS011;57848;51.938;15.520;2024-03-23T02:20:24;37.07;;;17.90;;
70420;SDS011;57848;51.938;15.520;2024-03-23T02:22:51;32.27;;;17.13;;
70420;SDS011;57848;51.938;15.520;2024-03-23T02:25:18;33.25;;;17.08;;
70420;SDS011;57848;51.938;15.520;2024-03-23T02:27:43;36.17;;;16.80;;
70420;SDS011;57848;51.938;15.520;2024-03-23T02:30:08;33.23;;;16.57;;
70420;SDS011;57848;51.938;15.520;2024-03-23T02:32:34;31.95;;;16.17;;
70420;SDS011;57848;51.938;15.520;2024-03-23T02:34:59;32.53;;;17.33;;
70420;SDS011;57848;51.938;15.520;2024-03-23T02:37:24;31.90;;;16.00;;
70420;SDS011;57848;51.938;15.520;2024-03-23T02:39:50;35.90;;;15.97;;
70420;SDS011;57848;51.938;15.520;2024-03-23T02:42:15;34.77;;;16.47;;
70420;SDS011;57848;51.938;15.520;2024-03-23T02:44:42;36.85;;;17.13;;
70420;SDS011;57848;51.938;15.520;2024-03-23T02:47:08;33.60;;;17.03;;
70420;SDS011;57848;51.938;15.520;2024-03-23T02:49:33;36.50;;;16.70;;
70420;SDS011;57848;51.938;15.520;2024-03-23T02:51:58;29.90;;;14.23;;
70420;SDS011;57848;51.938;15.520;2024-03-23T02:54:24;30.57;;;15.57;;
70420;SDS011;57848;51.938;15.520;2024-03-23T02:56:49;29.20;;;14.17;;
70420;SDS011;57848;51.938;15.520;2024-03-23T02:59:15;29.53;;;14.03;;
70420;SDS011;57848;51.938;15.520;2024-03-23T03:01:40;31.17;;;14.03;;
70420;SDS011;57848;51.938;15.520;2024-03-23T03:04:05;29.30;;;14.63;;
70420;SDS011;57848;51.938;15.520;2024-03-23T03:06:31;31.80;;;14.83;;
70420;SDS011;57848;51.938;15.520;2024-03-23T03:08:56;34.17;;;15.10;;
70420;SDS011;57848;51.938;15.520;2024-03-23T03:11:22;29.83;;;14.40;;
70420;SDS011;57848;51.938;15.520;2024-03-23T03:13:47;29.67;;;13.77;;
70420;SDS011;57848;51.938;15.520;2024-03-23T03:16:12;31.70;;;14.67;;
70420;SDS011;57848;51.938;15.520;2024-03-23T03:18:38;32.15;;;13.98;;
70420;SDS011;57848;51.938;15.520;2024-03-23T03:21:05;29.00;;;14.40;;
70420;SDS011;57848;51.938;15.520;2024-03-23T03:23:33;29.90;;;13.23;;
70420;SDS011;57848;51.938;15.520;2024-03-23T03:25:59;28.02;;;13.20;;
70420;SDS011;57848;51.938;15.520;2024-03-23T03:28:24;29.97;;;13.80;;
70420;SDS011;57848;51.938;15.520;2024-03-23T03:30:51;33.93;;;14.87;;
70420;SDS011;57848;51.938;15.520;2024-03-23T03:33:16;32.65;;;14.32;;
70420;SDS011;57848;51.938;15.520;2024-03-23T03:35:42;33.27;;;15.43;;
70420;SDS011;57848;51.938;15.520;2024-03-23T03:38:08;39.28;;;17.95;;
70420;SDS011;57848;51.938;15.520;2024-03-23T03:40:33;35.97;;;16.73;;
70420;SDS011;57848;51.938;15.520;2024-03-23T03:42:59;24.53;;;10.77;;
70420;SDS011;57848;51.938;15.520;2024-03-23T03:45:24;17.00;;;6.13;;
70420;SDS011;57848;51.938;15.520;2024-03-23T03:47:49;12.00;;;4.63;;
70420;SDS011;57848;51.938;15.520;2024-03-23T03:50:15;13.63;;;4.20;;
70420;SDS011;57848;51.938;15.520;2024-03-23T03:52:40;11.30;;;3.97;;
70420;SDS011;57848;51.938;15.520;2024-03-23T03:55:12;15.83;;;3.97;;
70420;SDS011;57848;51.938;15.520;2024-03-23T03:57:38;11.57;;;3.80;;
70420;SDS011;57848;51.938;15.520;2024-03-23T04:00:04;11.50;;;3.63;;
70420;SDS011;57848;51.938;15.520;2024-03-23T04:02:30;11.48;;;2.35;;
70420;SDS011;57848;51.938;15.520;2024-03-23T04:04:55;10.30;;;2.73;;
70420;SDS011;57848;51.938;15.520;2024-03-23T04:07:20;10.67;;;2.13;;
70420;SDS011;57848;51.938;15.520;2024-03-23T04:09:47;11.40;;;2.05;;
70420;SDS011;57848;51.938;15.520;2024-03-23T04:12:13;9.93;;;3.00;;
70420;SDS011;57848;51.938;15.520;2024-03-23T04:14:39;7.87;;;2.20;;
70420;SDS011;57848;51.938;15.520;2024-03-23T04:17:04;7.93;;;2.00;;
70420;SDS011;57848;51.938;15.520;2024-03-23T04:19:29;8.13;;;1.87;;
70420;SDS011;57848;51.938;15.520;2024-03-23T04:21:55;10.00;;;1.90;;
70420;SDS011;57848;51.938;15.520;2024-03-23T04:24:20;11.43;;;1.98;;
70420;SDS011;57848;51.938;15.520;2024-03-23T04:26:47;8.00;;;2.17;;
70420;SDS011;57848;51.938;15.520;2024-03-23T04:29:12;10.40;;;2.23;;
70420;SDS011;57848;51.938;15.520;2024-03-23T04:31:38;11.35;;;1.70;;
70420;SDS011;57848;51.938;15.520;2024-03-23T04:34:03;11.80;;;1.73;;
70420;SDS011;57848;51.938;15.520;2024-03-23T04:36:29;14.17;;;2.07;;
70420;SDS011;57848;51.938;15.520;2024-03-23T04:38:55;9.98;;;1.90;;
70420;SDS011;57848;51.938;15.520;2024-03-23T04:41:22;7.82;;;1.70;;
70420;SDS011;57848;51.938;15.520;2024-03-23T04:43:47;11.67;;;1.57;;
70420;SDS011;57848;51.938;15.520;2024-03-23T04:46:12;8.77;;;1.60;;
70420;SDS011;57848;51.938;15.520;2024-03-23T04:48:38;5.77;;;1.33;;
70420;SDS011;57848;51.938;15.520;2024-03-23T04:51:03;10.93;;;1.70;;
70420;SDS011;57848;51.938;15.520;2024-03-23T04:53:29;8.77;;;1.60;;
70420;SDS011;57848;51.938;15.520;2024-03-23T04:55:55;13.10;;;2.10;;
70420;SDS011;57848;51.938;15.520;2024-03-23T04:58:21;7.20;;;1.50;;
70420;SDS011;57848;51.938;15.520;2024-03-23T05:00:52;9.40;;;1.98;;
70420;SDS011;57848;51.938;15.520;2024-03-23T05:03:19;9.15;;;1.90;;
70420;SDS011;57848;51.938;15.520;2024-03-23T05:05:46;8.77;;;1.83;;
70420;SDS011;57848;51.938;15.520;2024-03-23T05:08:11;10.00;;;2.20;;
70420;SDS011;57848;51.938;15.520;2024-03-23T05:10:37;11.10;;;2.03;;
70420;SDS011;57848;51.938;15.520;2024-03-23T05:13:03;9.47;;;2.37;;
70420;SDS011;57848;51.938;15.520;2024-03-23T05:15:28;10.13;;;2.47;;
70420;SDS011;57848;51.938;15.520;2024-03-23T05:17:55;12.82;;;2.05;;
70420;SDS011;57848;51.938;15.520;2024-03-23T05:20:20;11.10;;;2.57;;
70420;SDS011;57848;51.938;15.520;2024-03-23T05:22:46;16.17;;;2.83;;
70420;SDS011;57848;51.938;15.520;2024-03-23T05:25:11;9.83;;;2.50;;
70420;SDS011;57848;51.938;15.520;2024-03-23T05:27:37;13.33;;;2.63;;
70420;SDS011;57848;51.938;15.520;2024-03-23T05:30:03;11.20;;;2.67;;
70420;SDS011;57848;51.938;15.520;2024-03-23T05:32:29;10.70;;;2.67;;
70420;SDS011;57848;51.938;15.520;2024-03-23T05:34:54;13.80;;;2.42;;
70420;SDS011;57848;51.938;15.520;2024-03-23T05:37:22;12.00;;;2.35;;
70420;SDS011;57848;51.938;15.520;2024-03-23T05:39:48;10.53;;;2.57;;
70420;SDS011;57848;51.938;15.520;2024-03-23T05:42:15;12.70;;;2.70;;
70420;SDS011;57848;51.938;15.520;2024-03-23T05:44:42;10.68;;;2.67;;
70420;SDS011;57848;51.938;15.520;2024-03-23T05:47:10;11.00;;;2.53;;
70420;SDS011;57848;51.938;15.520;2024-03-23T05:49:38;9.52;;;2.78;;
70420;SDS011;57848;51.938;15.520;2024-03-23T05:52:03;12.27;;;2.63;;
70420;SDS011;57848;51.938;15.520;2024-03-23T05:54:29;10.18;;;2.53;;
70420;SDS011;57848;51.938;15.520;2024-03-23T05:56:55;12.60;;;2.30;;
70420;SDS011;57848;51.938;15.520;2024-03-23T05:59:20;13.73;;;2.80;;
70420;SDS011;57848;51.938;15.520;2024-03-23T06:01:46;10.03;;;3.20;;
70420;SDS011;57848;51.938;15.520;2024-03-23T06:04:12;12.32;;;3.33;;
70420;SDS011;57848;51.938;15.520;2024-03-23T06:06:38;11.30;;;2.95;;
70420;SDS011;57848;51.938;15.520;2024-03-23T06:09:04;12.95;;;3.15;;
70420;SDS011;57848;51.938;15.520;2024-03-23T06:11:30;14.80;;;2.80;;
70420;SDS011;57848;51.938;15.520;2024-03-23T06:13:55;8.50;;;2.40;;
70420;SDS011;57848;51.938;15.520;2024-03-23T06:16:21;11.93;;;2.38;;
70420;SDS011;57848;51.938;15.520;2024-03-23T06:18:49;14.30;;;3.70;;
70420;SDS011;57848;51.938;15.520;2024-03-23T06:21:15;11.57;;;2.80;;
70420;SDS011;57848;51.938;15.520;2024-03-23T06:23:41;9.97;;;3.43;;
70420;SDS011;57848;51.938;15.520;2024-03-23T06:26:07;13.85;;;4.45;;
70420;SDS011;57848;51.938;15.520;2024-03-23T06:28:32;15.17;;;6.00;;
70420;SDS011;57848;51.938;15.520;2024-03-23T06:30:57;12.67;;;4.63;;
70420;SDS011;57848;51.938;15.520;2024-03-23T06:33:23;14.55;;;3.42;;
70420;SDS011;57848;51.938;15.520;2024-03-23T06:35:52;13.20;;;3.77;;
70420;SDS011;57848;51.938;15.520;2024-03-23T06:38:18;14.15;;;2.78;;
70420;SDS011;57848;51.938;15.520;2024-03-23T06:40:43;13.70;;;2.90;;
70420;SDS011;57848;51.938;15.520;2024-03-23T06:43:15;8.73;;;2.40;;
70420;SDS011;57848;51.938;15.520;2024-03-23T06:45:40;10.80;;;2.80;;
70420;SDS011;57848;51.938;15.520;2024-03-23T06:48:06;13.37;;;3.47;;
70420;SDS011;57848;51.938;15.520;2024-03-23T06:50:33;12.32;;;3.78;;
70420;SDS011;57848;51.938;15.520;2024-03-23T06:52:59;14.07;;;4.68;;
70420;SDS011;57848;51.938;15.520;2024-03-23T06:55:24;12.20;;;4.13;;
70420;SDS011;57848;51.938;15.520;2024-03-23T06:57:51;14.07;;;3.70;;
70420;SDS011;57848;51.938;15.520;2024-03-23T07:00:17;13.35;;;4.35;;
70420;SDS011;57848;51.938;15.520;2024-03-23T07:02:43;11.97;;;3.80;;
70420;SDS011;57848;51.938;15.520;2024-03-23T07:05:09;12.10;;;3.40;;
70420;SDS011;57848;51.938;15.520;2024-03-23T07:07:35;13.15;;;4.63;;
70420;SDS011;57848;51.938;15.520;2024-03-23T07:10:01;16.00;;;5.20;;
70420;SDS011;57848;51.938;15.520;2024-03-23T07:12:27;12.05;;;4.50;;
70420;SDS011;57848;51.938;15.520;2024-03-23T07:14:52;15.07;;;4.33;;
70420;SDS011;57848;51.938;15.520;2024-03-23T07:17:17;13.87;;;4.93;;
70420;SDS011;57848;51.938;15.520;2024-03-23T07:19:43;14.60;;;4.43;;
70420;SDS011;57848;51.938;15.520;2024-03-23T07:22:08;13.48;;;4.68;;
70420;SDS011;57848;51.938;15.520;2024-03-23T07:24:34;14.63;;;4.87;;
70420;SDS011;57848;51.938;15.520;2024-03-23T07:26:59;16.60;;;6.40;;
70420;SDS011;57848;51.938;15.520;2024-03-23T07:29:25;17.40;;;6.00;;
70420;SDS011;57848;51.938;15.520;2024-03-23T07:31:50;17.40;;;6.27;;
70420;SDS011;57848;51.938;15.520;2024-03-23T07:34:15;21.13;;;7.90;;
70420;SDS011;57848;51.938;15.520;2024-03-23T07:36:41;15.53;;;6.47;;
70420;SDS011;57848;51.938;15.520;2024-03-23T07:39:06;17.73;;;6.93;;
70420;SDS011;57848;51.938;15.520;2024-03-23T07:41:33;23.95;;;8.45;;
70420;SDS011;57848;51.938;15.520;2024-03-23T07:43:58;30.30;;;10.03;;
70420;SDS011;57848;51.938;15.520;2024-03-23T07:46:24;32.77;;;10.17;;
70420;SDS011;57848;51.938;15.520;2024-03-23T07:48:50;33.13;;;12.18;;
70420;SDS011;57848;51.938;15.520;2024-03-23T07:51:17;34.60;;;11.82;;
70420;SDS011;57848;51.938;15.520;2024-03-23T07:53:44;24.13;;;9.23;;
70420;SDS011;57848;51.938;15.520;2024-03-23T07:56:11;23.33;;;8.07;;
70420;SDS011;57848;51.938;15.520;2024-03-23T07:58:37;30.88;;;8.65;;
70420;SDS011;57848;51.938;15.520;2024-03-23T08:01:04;22.23;;;7.82;;
70420;SDS011;57848;51.938;15.520;2024-03-23T08:03:47;21.55;;;7.88;;
70420;SDS011;57848;51.938;15.520;2024-03-23T08:06:18;20.95;;;7.75;;
70420;SDS011;57848;51.938;15.520;2024-03-23T08:08:45;22.83;;;8.53;;
70420;SDS011;57848;51.938;15.520;2024-03-23T08:11:12;24.35;;;7.93;;
70420;SDS011;57848;51.938;15.520;2024-03-23T08:13:41;25.73;;;9.77;;
70420;SDS011;57848;51.938;15.520;2024-03-23T08:16:07;25.83;;;9.05;;
70420;SDS011;57848;51.938;15.520;2024-03-23T08:18:33;29.60;;;11.25;;
70420;SDS011;57848;51.938;15.520;2024-03-23T08:21:00;17.95;;;6.68;;
70420;SDS011;57848;51.938;15.520;2024-03-23T08:23:27;19.43;;;6.00;;
70420;SDS011;57848;51.938;15.520;2024-03-23T08:26:00;19.65;;;6.68;;
70420;SDS011;57848;51.938;15.520;2024-03-23T08:28:26;18.00;;;6.10;;
70420;SDS011;57848;51.938;15.520;2024-03-23T08:30:52;17.85;;;6.47;;
70420;SDS011;57848;51.938;15.520;2024-03-23T08:33:18;16.98;;;6.13;;
70420;SDS011;57848;51.938;15.520;2024-03-23T08:35:52;20.80;;;8.37;;
70420;SDS011;57848;51.938;15.520;2024-03-23T08:38:22;17.80;;;7.93;;
70420;SDS011;57848;51.938;15.520;2024-03-23T08:40:48;22.10;;;8.77;;
70420;SDS011;57848;51.938;15.520;2024-03-23T08:43:21;27.10;;;8.70;;
70420;SDS011;57848;51.938;15.520;2024-03-23T08:45:46;29.10;;;11.30;;
70420;SDS011;57848;51.938;15.520;2024-03-23T08:48:11;40.77;;;14.20;;
70420;SDS011;57848;51.938;15.520;2024-03-23T08:50:36;37.17;;;13.50;;
70420;SDS011;57848;51.938;15.520;2024-03-23T08:53:02;34.07;;;11.93;;
70420;SDS011;57848;51.938;15.520;2024-03-23T08:55:28;29.58;;;10.00;;
70420;SDS011;57848;51.938;15.520;2024-03-23T08:57:53;28.70;;;10.27;;
70420;SDS011;57848;51.938;15.520;2024-03-23T09:00:18;27.43;;;10.83;;
70420;SDS011;57848;51.938;15.520;2024-03-23T09:02:47;31.00;;;12.05;;
70420;SDS011;57848;51.938;15.520;2024-03-23T09:05:12;29.37;;;11.00;;
70420;SDS011;57848;51.938;15.520;2024-03-23T09:07:38;32.80;;;14.38;;
70420;SDS011;57848;51.938;15.520;2024-03-23T09:10:03;32.97;;;14.57;;
70420;SDS011;57848;51.938;15.520;2024-03-23T09:12:28;30.70;;;13.33;;
70420;SDS011;57848;51.938;15.520;2024-03-23T09:14:54;33.00;;;16.03;;
70420;SDS011;57848;51.938;15.520;2024-03-23T09:17:19;30.00;;;13.10;;
70420;SDS011;57848;51.938;15.520;2024-03-23T09:19:44;27.13;;;11.17;;
70420;SDS011;57848;51.938;15.520;2024-03-23T09:22:10;29.47;;;11.90;;
70420;SDS011;57848;51.938;15.520;2024-03-23T09:24:35;29.77;;;11.85;;
70420;SDS011;57848;51.938;15.520;2024-03-23T09:27:01;25.70;;;11.67;;
70420;SDS011;57848;51.938;15.520;2024-03-23T09:29:28;25.90;;;12.23;;
70420;SDS011;57848;51.938;15.520;2024-03-23T09:31:53;24.15;;;11.77;;
70420;SDS011;57848;51.938;15.520;2024-03-23T09:34:19;31.70;;;17.53;;
70420;SDS011;57848;51.938;15.520;2024-03-23T09:36:44;27.73;;;13.43;;
70420;SDS011;57848;51.938;15.520;2024-03-23T09:39:10;23.30;;;11.52;;
70420;SDS011;57848;51.938;15.520;2024-03-23T09:41:35;22.93;;;10.00;;
70420;SDS011;57848;51.938;15.520;2024-03-23T09:44:01;22.50;;;10.77;;
70420;SDS011;57848;51.938;15.520;2024-03-23T09:46:27;18.85;;;8.43;;
70420;SDS011;57848;51.938;15.520;2024-03-23T09:48:53;18.60;;;8.30;;
70420;SDS011;57848;51.938;15.520;2024-03-23T09:51:20;18.93;;;7.07;;
70420;SDS011;57848;51.938;15.520;2024-03-23T09:53:49;17.20;;;6.80;;
70420;SDS011;57848;51.938;15.520;2024-03-23T09:56:15;15.70;;;7.30;;
70420;SDS011;57848;51.938;15.520;2024-03-23T09:58:42;17.38;;;6.25;;
70420;SDS011;57848;51.938;15.520;2024-03-23T10:01:07;14.57;;;5.97;;
70420;SDS011;57848;51.938;15.520;2024-03-23T10:03:41;19.20;;;7.30;;
70420;SDS011;57848;51.938;15.520;2024-03-23T10:06:10;14.52;;;7.13;;
70420;SDS011;57848;51.938;15.520;2024-03-23T10:08:36;14.13;;;5.63;;
70420;SDS011;57848;51.938;15.520;2024-03-23T10:11:14;15.80;;;6.37;;
70420;SDS011;57848;51.938;15.520;2024-03-23T10:13:41;15.68;;;7.22;;
70420;SDS011;57848;51.938;15.520;2024-03-23T10:16:08;15.63;;;6.07;;
70420;SDS011;57848;51.938;15.520;2024-03-23T10:18:37;19.85;;;6.30;;
70420;SDS011;57848;51.938;15.520;2024-03-23T10:21:08;18.45;;;6.25;;
70420;SDS011;57848;51.938;15.520;2024-03-23T10:23:36;17.45;;;6.70;;
70420;SDS011;57848;51.938;15.520;2024-03-23T10:26:12;11.43;;;5.53;;
70420;SDS011;57848;51.938;15.520;2024-03-23T10:28:38;13.30;;;5.90;;
70420;SDS011;57848;51.938;15.520;2024-03-23T10:31:36;15.32;;;6.50;;
70420;SDS011;57848;51.938;15.520;2024-03-23T10:34:02;17.37;;;7.13;;
70420;SDS011;57848;51.938;15.520;2024-03-23T10:36:28;22.05;;;12.90;;
70420;SDS011;57848;51.938;15.520;2024-03-23T10:38:55;18.83;;;8.05;;
70420;SDS011;57848;51.938;15.520;2024-03-23T10:41:23;22.00;;;10.40;;
70420;SDS011;57848;51.938;15.520;2024-03-23T10:43:51;17.73;;;7.63;;
70420;SDS011;57848;51.938;15.520;2024-03-23T10:46:16;15.73;;;6.55;;
70420;SDS011;57848;51.938;15.520;2024-03-23T10:48:42;14.97;;;6.20;;
70420;SDS011;57848;51.938;15.520;2024-03-23T10:51:08;14.18;;;5.65;;
70420;SDS011;57848;51.938;15.520;2024-03-23T10:53:35;12.35;;;5.85;;
70420;SDS011;57848;51.938;15.520;2024-03-23T10:56:02;14.13;;;6.20;;
70420;SDS011;57848;51.938;15.520;2024-03-23T10:58:30;18.52;;;7.07;;
70420;SDS011;57848;51.938;15.520;2024-03-23T11:00:58;15.25;;;6.90;;
70420;SDS011;57848;51.938;15.520;2024-03-23T11:03:31;18.33;;;8.53;;
70420;SDS011;57848;51.938;15.520;2024-03-23T11:06:03;18.65;;;9.30;;
70420;SDS011;57848;51.938;15.520;2024-03-23T11:08:30;16.48;;;7.03;;
70420;SDS011;57848;51.938;15.520;2024-03-23T11:13:47;17.42;;;7.07;;
70420;SDS011;57848;51.938;15.520;2024-03-23T11:16:14;21.63;;;8.27;;
70420;SDS011;57848;51.938;15.520;2024-03-23T11:18:39;21.95;;;8.18;;
70420;SDS011;57848;51.938;15.520;2024-03-23T11:21:06;20.93;;;8.83;;
70420;SDS011;57848;51.938;15.520;2024-03-23T11:23:31;24.30;;;9.02;;
70420;SDS011;57848;51.938;15.520;2024-03-23T11:25:57;18.33;;;7.40;;
70420;SDS011;57848;51.938;15.520;2024-03-23T11:28:22;11.83;;;5.40;;
70420;SDS011;57848;51.938;15.520;2024-03-23T11:30:47;12.77;;;5.55;;
70420;SDS011;57848;51.938;15.520;2024-03-23T11:33:13;13.30;;;5.90;;
70420;SDS011;57848;51.938;15.520;2024-03-23T11:35:39;16.38;;;6.93;;
70420;SDS011;57848;51.938;15.520;2024-03-23T11:40:35;8.50;;;2.53;;
70420;SDS011;57848;51.938;15.520;2024-03-23T11:43:06;9.45;;;3.20;;
70420;SDS011;57848;51.938;15.520;2024-03-23T11:45:35;7.00;;;2.97;;
70420;SDS011;57848;51.938;15.520;2024-03-23T11:48:16;7.20;;;2.55;;
70420;SDS011;57848;51.938;15.520;2024-03-23T11:50:43;10.30;;;3.00;;
70420;SDS011;57848;51.938;15.520;2024-03-23T11:53:12;9.67;;;2.37;;
70420;SDS011;57848;51.938;15.520;2024-03-23T11:55:41;8.07;;;2.60;;
70420;SDS011;57848;51.938;15.520;2024-03-23T11:58:17;8.20;;;2.90;;
70420;SDS011;57848;51.938;15.520;2024-03-23T12:00:51;8.32;;;2.50;;
70420;SDS011;57848;51.938;15.520;2024-03-23T12:03:23;5.50;;;1.60;;
70420;SDS011;57848;51.938;15.520;2024-03-23T12:05:54;5.17;;;1.77;;
70420;SDS011;57848;51.938;15.520;2024-03-23T12:08:30;8.18;;;1.83;;
70420;SDS011;57848;51.938;15.520;2024-03-23T12:13:32;4.97;;;0.90;;
70420;SDS011;57848;51.938;15.520;2024-03-23T12:16:08;12.38;;;2.33;;
70420;SDS011;57848;51.938;15.520;2024-03-23T12:18:35;8.30;;;1.60;;
70420;SDS011;57848;51.938;15.520;2024-03-23T12:21:00;5.88;;;1.48;;
70420;SDS011;57848;51.938;15.520;2024-03-23T12:23:26;5.13;;;1.83;;
70420;SDS011;57848;51.938;15.520;2024-03-23T12:25:51;7.13;;;1.50;;
70420;SDS011;57848;51.938;15.520;2024-03-23T12:28:16;7.57;;;1.90;;
70420;SDS011;57848;51.938;15.520;2024-03-23T12:30:42;5.70;;;1.30;;
70420;SDS011;57848;51.938;15.520;2024-03-23T12:33:07;5.53;;;1.33;;
70420;SDS011;57848;51.938;15.520;2024-03-23T12:35:32;4.60;;;1.10;;
70420;SDS011;57848;51.938;15.520;2024-03-23T12:37:58;6.13;;;1.43;;
70420;SDS011;57848;51.938;15.520;2024-03-23T12:40:24;4.53;;;1.30;;
70420;SDS011;57848;51.938;15.520;2024-03-23T12:42:50;5.97;;;1.60;;
70420;SDS011;57848;51.938;15.520;2024-03-23T12:45:15;6.50;;;1.30;;
70420;SDS011;57848;51.938;15.520;2024-03-23T12:47:41;5.07;;;1.52;;
70420;SDS011;57848;51.938;15.520;2024-03-23T12:50:06;4.40;;;1.13;;
70420;SDS011;57848;51.938;15.520;2024-03-23T12:52:34;6.40;;;1.40;;
70420;SDS011;57848;51.938;15.520;2024-03-23T12:55:00;3.83;;;0.90;;
70420;SDS011;57848;51.938;15.520;2024-03-23T12:57:26;6.03;;;1.60;;
70420;SDS011;57848;51.938;15.520;2024-03-23T12:59:51;5.20;;;1.10;;
70420;SDS011;57848;51.938;15.520;2024-03-23T13:02:21;5.43;;;1.30;;
70420;SDS011;57848;51.938;15.520;2024-03-23T13:04:49;4.43;;;1.30;;
70420;SDS011;57848;51.938;15.520;2024-03-23T13:07:15;4.35;;;1.10;;
70420;SDS011;57848;51.938;15.520;2024-03-23T13:09:40;4.40;;;1.30;;
70420;SDS011;57848;51.938;15.520;2024-03-23T13:12:06;4.15;;;1.20;;
70420;SDS011;57848;51.938;15.520;2024-03-23T13:14:31;3.83;;;1.20;;
70420;SDS011;57848;51.938;15.520;2024-03-23T13:16:57;4.80;;;1.40;;
70420;SDS011;57848;51.938;15.520;2024-03-23T13:19:22;7.10;;;1.33;;
70420;SDS011;57848;51.938;15.520;2024-03-23T13:21:51;4.60;;;1.50;;
70420;SDS011;57848;51.938;15.520;2024-03-23T13:24:21;4.43;;;1.33;;
70420;SDS011;57848;51.938;15.520;2024-03-23T13:26:46;3.55;;;0.88;;
70420;SDS011;57848;51.938;15.520;2024-03-23T13:29:12;4.50;;;1.00;;
70420;SDS011;57848;51.938;15.520;2024-03-23T13:31:37;4.70;;;1.37;;
70420;SDS011;57848;51.938;15.520;2024-03-23T13:34:02;4.97;;;1.17;;
70420;SDS011;57848;51.938;15.520;2024-03-23T13:36:28;5.40;;;1.57;;
70420;SDS011;57848;51.938;15.520;2024-03-23T13:38:53;6.13;;;1.77;;
70420;SDS011;57848;51.938;15.520;2024-03-23T13:41:18;6.10;;;1.20;;
70420;SDS011;57848;51.938;15.520;2024-03-23T13:43:44;5.70;;;1.10;;
70420;SDS011;57848;51.938;15.520;2024-03-23T13:46:09;5.90;;;1.30;;
70420;SDS011;57848;51.938;15.520;2024-03-23T13:48:34;5.47;;;1.50;;
70420;SDS011;57848;51.938;15.520;2024-03-23T13:51:00;4.93;;;1.10;;
70420;SDS011;57848;51.938;15.520;2024-03-23T13:53:26;4.60;;;1.20;;
70420;SDS011;57848;51.938;15.520;2024-03-23T13:55:52;5.07;;;1.30;;
70420;SDS011;57848;51.938;15.520;2024-03-23T13:58:18;4.00;;;1.20;;
70420;SDS011;57848;51.938;15.520;2024-03-23T14:00:43;5.95;;;1.30;;
70420;SDS011;57848;51.938;15.520;2024-03-23T14:03:09;4.20;;;1.07;;
70420;SDS011;57848;51.938;15.520;2024-03-23T14:05:35;4.53;;;1.42;;
70420;SDS011;57848;51.938;15.520;2024-03-23T14:08:00;5.10;;;1.40;;
70420;SDS011;57848;51.938;15.520;2024-03-23T14:10:26;6.50;;;1.80;;
70420;SDS011;57848;51.938;15.520;2024-03-23T14:12:52;5.20;;;1.73;;
70420;SDS011;57848;51.938;15.520;2024-03-23T14:15:18;4.53;;;1.23;;
70420;SDS011;57848;51.938;15.520;2024-03-23T14:17:43;4.43;;;1.13;;
70420;SDS011;57848;51.938;15.520;2024-03-23T14:20:08;4.10;;;1.13;;
70420;SDS011;57848;51.938;15.520;2024-03-23T14:22:36;5.43;;;1.80;;
70420;SDS011;57848;51.938;15.520;2024-03-23T14:25:02;4.30;;;1.17;;
70420;SDS011;57848;51.938;15.520;2024-03-23T14:27:28;4.78;;;1.50;;
70420;SDS011;57848;51.938;15.520;2024-03-23T14:29:53;5.63;;;1.40;;
70420;SDS011;57848;51.938;15.520;2024-03-23T14:32:19;4.60;;;1.02;;
70420;SDS011;57848;51.938;15.520;2024-03-23T14:34:45;5.63;;;1.60;;
70420;SDS011;57848;51.938;15.520;2024-03-23T14:37:10;6.33;;;1.57;;
70420;SDS011;57848;51.938;15.520;2024-03-23T14:39:35;5.60;;;0.93;;
70420;SDS011;57848;51.938;15.520;2024-03-23T14:42:01;4.97;;;1.30;;
70420;SDS011;57848;51.938;15.520;2024-03-23T14:44:27;4.80;;;1.38;;
70420;SDS011;57848;51.938;15.520;2024-03-23T14:46:53;4.63;;;0.97;;
70420;SDS011;57848;51.938;15.520;2024-03-23T14:49:19;4.85;;;1.10;;
70420;SDS011;57848;51.938;15.520;2024-03-23T14:51:44;8.30;;;1.57;;
70420;SDS011;57848;51.938;15.520;2024-03-23T14:54:10;6.63;;;1.55;;
70420;SDS011;57848;51.938;15.520;2024-03-23T14:56:36;7.63;;;1.70;;
70420;SDS011;57848;51.938;15.520;2024-03-23T14:59:02;5.53;;;1.10;;
70420;SDS011;57848;51.938;15.520;2024-03-23T15:01:28;5.17;;;1.40;;
70420;SDS011;57848;51.938;15.520;2024-03-23T15:03:53;9.50;;;1.42;;
70420;SDS011;57848;51.938;15.520;2024-03-23T15:06:18;5.53;;;1.27;;
70420;SDS011;57848;51.938;15.520;2024-03-23T15:08:44;5.77;;;1.63;;
70420;SDS011;57848;51.938;15.520;2024-03-23T15:11:10;4.38;;;0.98;;
70420;SDS011;57848;51.938;15.520;2024-03-23T15:13:36;5.57;;;0.97;;
70420;SDS011;57848;51.938;15.520;2024-03-23T15:16:02;5.30;;;1.10;;
70420;SDS011;57848;51.938;15.520;2024-03-23T15:18:31;5.50;;;1.52;;
70420;SDS011;57848;51.938;15.520;2024-03-23T15:21:01;9.02;;;1.80;;